Time;durP1;ratioP1;P1;durP2;ratioP2;P2;SDS_P1;SDS_P2;PMS_P1;PMS_P2;Temp;Humidity;BMP_temperature;BMP_pressure;BME280_temperature;BME280_humidity;BME280_pressure;Samples;Min_cycle;Max_cycle;Signal;HPM_P1;HPM_P2
2022/12/15 00:39:19;;;;;;;49.23;26.10;;;-1.60;99.90;;;;;;5016478;28;20781;-79
2022/12/15 00:41:44;;;;;;;44.10;22.23;;;-1.60;99.90;;;;;;5015813;28;20189;-79
2022/12/15 00:44:11;;;;;;;47.13;23.00;;;-1.60;99.90;;;;;;5017388;28;20196;-79
2022/12/15 00:46:55;;;;;;;43.83;23.33;;;-1.90;99.90;;;;;;5014875;28;20165;-79
2022/12/15 01:22:37;;;;;;;50.47;23.70;;;-1.90;99.90;;;;;;5022058;28;20276;-80
2022/12/15 01:25:03;;;;;;;52.70;24.77;;;-1.90;99.90;;;;;;5017831;28;20193;-80
2022/12/15 01:27:29;;;;;;;39.60;21.40;;;-2.00;99.90;;;;;;5018961;28;20176;-81
2022/12/15 01:29:54;;;;;;;42.43;23.20;;;-2.00;99.90;;;;;;5016574;28;20649;-79
2022/12/15 01:32:20;;;;;;;41.60;22.23;;;-2.00;99.90;;;;;;5015816;28;20633;-78
2022/12/15 01:34:46;;;;;;;41.40;21.63;;;-2.00;99.90;;;;;;5016069;28;20275;-78
2022/12/15 01:37:11;;;;;;;46.23;21.93;;;-1.70;99.90;;;;;;5014753;28;20191;-78
2022/12/15 01:42:21;;;;;;;45.30;22.60;;;-1.80;99.90;;;;;;5015980;28;20255;-86
2022/12/15 01:44:49;;;;;;;47.20;21.87;;;-1.80;99.90;;;;;;5015943;28;20176;-78
2022/12/15 01:47:15;;;;;;;49.93;23.90;;;-1.90;99.90;;;;;;5016007;28;20223;-86
2022/12/15 01:49:42;;;;;;;43.47;23.33;;;-2.00;99.90;;;;;;5016414;28;20216;-79
2022/12/15 01:52:09;;;;;;;45.10;22.93;;;-2.00;99.90;;;;;;5015954;28;20254;-79
2022/12/15 01:54:41;;;;;;;50.47;22.80;;;-2.00;99.90;;;;;;5016044;28;20533;-79
2022/12/15 01:57:12;;;;;;;43.43;21.67;;;-2.20;99.90;;;;;;5015801;28;20179;-80
2022/12/15 01:59:42;;;;;;;47.90;23.30;;;-2.10;99.90;;;;;;5014855;28;20513;-79
2022/12/15 02:02:09;;;;;;;55.43;23.60;;;-2.10;99.90;;;;;;5016191;28;20545;-80
2022/12/15 02:04:36;;;;;;;44.40;23.77;;;-1.80;99.90;;;;;;5015802;28;20588;-79
2022/12/15 02:07:02;;;;;;;45.67;24.27;;;-1.70;99.90;;;;;;5015632;28;20167;-79
2022/12/15 02:09:29;;;;;;;50.03;24.13;;;-1.90;99.90;;;;;;5014544;28;20200;-85
2022/12/15 02:12:11;;;;;;;42.73;21.17;;;-2.10;99.90;;;;;;5013536;28;20192;-79
2022/12/15 02:15:01;;;;;;;51.10;23.40;;;-2.20;99.90;;;;;;5015295;28;20168;-82
2022/12/15 02:17:53;;;;;;;47.77;23.03;;;-2.20;99.90;;;;;;5015453;28;20165;-80
2022/12/15 02:20:28;;;;;;;41.67;22.20;;;-2.10;99.90;;;;;;5015599;28;20188;-80
2022/12/15 02:23:12;;;;;;;50.37;24.97;;;-2.10;99.90;;;;;;5015677;28;20264;-80
2022/12/15 02:25:53;;;;;;;46.90;23.57;;;-2.10;99.90;;;;;;5015553;28;20175;-79
2022/12/15 02:28:41;;;;;;;61.33;26.30;;;-2.00;99.90;;;;;;5015281;28;20536;-84
2022/12/15 02:34:15;;;;;;;40.70;22.20;;;-2.30;99.90;;;;;;5015533;28;20219;-82
2022/12/15 02:36:47;;;;;;;50.27;23.50;;;-2.20;99.90;;;;;;5013491;28;20346;-79
2022/12/15 02:39:13;;;;;;;50.43;24.20;;;-2.30;99.90;;;;;;5015043;28;20520;-79
2022/12/15 02:41:41;;;;;;;51.47;24.47;;;-2.40;99.90;;;;;;5015214;28;20254;-82
2022/12/15 02:44:28;;;;;;;45.93;23.03;;;-2.40;99.90;;;;;;5014911;28;20207;-81
2022/12/15 02:47:29;;;;;;;45.43;23.43;;;-2.50;99.90;;;;;;5014902;28;20180;-82
2022/12/15 02:50:14;;;;;;;44.00;22.63;;;-2.20;99.90;;;;;;5014940;28;20257;-83
2022/12/15 02:53:09;;;;;;;44.03;22.20;;;-2.10;99.90;;;;;;5015019;28;20291;-79
2022/12/15 02:55:42;;;;;;;44.23;22.67;;;-2.20;99.90;;;;;;5013542;28;20176;-80
2022/12/15 02:58:41;;;;;;;44.43;21.87;;;-2.10;99.90;;;;;;5013474;28;20172;-78
2022/12/15 03:01:15;;;;;;;53.13;22.60;;;-2.10;99.90;;;;;;5008869;28;20216;-79
2022/12/15 03:03:41;;;;;;;44.67;21.00;;;-1.90;99.90;;;;;;5014653;28;20176;-79
2022/12/15 03:06:08;;;;;;;42.13;22.23;;;-2.10;99.90;;;;;;5014493;28;20177;-79
2022/12/15 03:08:33;;;;;;;56.70;22.13;;;-2.10;99.90;;;;;;5014591;28;20168;-79
2022/12/15 03:11:00;;;;;;;44.40;22.90;;;-2.30;99.90;;;;;;5014179;28;20208;-78
2022/12/15 03:13:26;;;;;;;43.53;23.53;;;-2.40;99.90;;;;;;5014421;28;20502;-79
2022/12/15 03:15:53;;;;;;;45.20;21.07;;;-2.50;99.90;;;;;;5014421;28;20179;-79
2022/12/15 03:18:19;;;;;;;36.73;20.23;;;-2.30;99.90;;;;;;5013416;28;20188;-79
2022/12/15 03:20:44;;;;;;;44.77;22.20;;;-2.20;99.90;;;;;;5014007;28;20176;-79
2022/12/15 03:23:10;;;;;;;47.47;24.33;;;-2.20;99.90;;;;;;5012870;28;20263;-79
2022/12/15 03:25:35;;;;;;;42.53;21.73;;;-1.90;99.90;;;;;;5014320;28;20183;-78
2022/12/15 03:28:01;;;;;;;41.40;22.20;;;-2.30;99.90;;;;;;5013904;28;20171;-80
2022/12/15 03:30:26;;;;;;;38.00;21.53;;;-2.30;99.90;;;;;;5014088;28;20212;-78
2022/12/15 03:32:52;;;;;;;36.30;21.10;;;-2.50;99.90;;;;;;5013999;28;20188;-78
2022/12/15 03:35:18;;;;;;;45.17;22.30;;;-2.70;99.90;;;;;;5013945;28;20227;-80
2022/12/15 03:37:43;;;;;;;38.43;21.03;;;-2.60;99.90;;;;;;5014113;28;20625;-79
2022/12/15 03:40:12;;;;;;;40.90;23.37;;;-2.80;99.90;;;;;;5012358;28;20177;-79
2022/12/15 03:42:47;;;;;;;37.23;21.00;;;-2.80;99.90;;;;;;5013934;28;20331;-79
2022/12/15 03:45:21;;;;;;;42.27;22.03;;;-2.60;99.90;;;;;;5014043;28;20172;-79
2022/12/15 03:47:48;;;;;;;47.97;22.77;;;-2.60;99.90;;;;;;5013900;28;20522;-78
2022/12/15 03:50:16;;;;;;;44.57;23.17;;;-2.50;99.90;;;;;;5013866;28;20208;-78
2022/12/15 03:52:42;;;;;;;46.57;23.23;;;-2.50;99.90;;;;;;5014291;28;20180;-79
2022/12/15 03:55:08;;;;;;;42.57;21.90;;;-2.30;99.90;;;;;;5015175;28;20176;-78
2022/12/15 03:57:34;;;;;;;61.30;22.83;;;-2.30;99.90;;;;;;5015500;28;20176;-80
2022/12/15 04:00:00;;;;;;;53.70;24.37;;;-2.20;99.90;;;;;;5015041;28;20181;-78
2022/12/15 04:02:25;;;;;;;48.37;23.47;;;-1.90;99.90;;;;;;5012435;28;20247;-78
2022/12/15 04:04:51;;;;;;;45.57;21.37;;;-1.80;99.90;;;;;;5013360;28;20161;-79
2022/12/15 04:07:17;;;;;;;36.50;21.33;;;-1.90;99.90;;;;;;5019686;28;20195;-80
2022/12/15 04:09:42;;;;;;;36.20;21.67;;;-1.90;99.90;;;;;;5014005;28;20204;-79
2022/12/15 04:12:11;;;;;;;47.53;23.20;;;-2.30;99.90;;;;;;5014402;28;20184;-80
2022/12/15 04:14:41;;;;;;;45.10;23.90;;;-2.40;99.90;;;;;;5015055;28;20169;-81
2022/12/15 04:17:10;;;;;;;47.07;24.43;;;-2.50;99.90;;;;;;5018108;28;20187;-80
2022/12/15 04:22:20;;;;;;;49.80;23.03;;;-2.50;99.90;;;;;;5016938;28;20203;-80
2022/12/15 05:33:15;;;;;;;48.03;23.40;;;-2.20;99.90;;;;;;5012676;28;20251;-80
2022/12/15 05:35:41;;;;;;;44.37;22.60;;;-2.10;99.90;;;;;;5013654;28;20650;-80
2022/12/15 05:38:06;;;;;;;39.20;22.10;;;-2.00;99.90;;;;;;5013015;28;20188;-79
2022/12/15 05:40:32;;;;;;;46.13;20.83;;;-1.90;99.90;;;;;;5013793;28;20165;-81
2022/12/15 05:42:58;;;;;;;44.83;23.60;;;-2.00;99.90;;;;;;5013470;28;20211;-79
2022/12/15 05:45:24;;;;;;;44.13;22.97;;;-2.00;99.90;;;;;;5013304;28;20169;-79
2022/12/15 05:47:54;;;;;;;45.63;23.13;;;-1.80;99.90;;;;;;5016224;28;20161;-79
2022/12/15 05:50:21;;;;;;;45.90;21.47;;;-1.80;99.90;;;;;;5016166;28;20620;-80
2022/12/15 05:52:48;;;;;;;46.43;23.03;;;-1.80;99.90;;;;;;5031572;28;20247;-86
2022/12/15 05:55:17;;;;;;;43.10;22.30;;;-2.30;99.90;;;;;;5014994;28;20184;-80
2022/12/15 05:57:49;;;;;;;50.67;23.57;;;-2.30;99.90;;;;;;5016188;28;20172;-79
2022/12/15 06:00:14;;;;;;;44.43;21.57;;;-2.30;99.90;;;;;;5014880;28;20637;-80
2022/12/15 06:02:40;;;;;;;59.97;23.80;;;-2.00;99.90;;;;;;5016315;28;20203;-80
2022/12/15 06:05:07;;;;;;;48.03;22.77;;;-1.90;99.90;;;;;;5014724;28;20168;-81
2022/12/15 06:07:33;;;;;;;53.97;22.33;;;-2.10;99.90;;;;;;5016850;28;20165;-79
2022/12/15 06:09:58;;;;;;;47.93;23.43;;;-2.30;99.90;;;;;;5015336;28;20258;-79
2022/12/15 06:12:24;;;;;;;52.80;23.37;;;-2.30;99.90;;;;;;5015297;28;20712;-81
2022/12/15 06:14:49;;;;;;;53.30;25.47;;;-2.10;99.90;;;;;;5015740;28;20172;-79
2022/12/15 06:17:15;;;;;;;40.93;21.67;;;-2.20;99.90;;;;;;5015270;28;20239;-79
2022/12/15 06:19:40;;;;;;;54.30;22.80;;;-2.10;99.90;;;;;;5015515;28;20160;-80
2022/12/15 06:22:06;;;;;;;48.57;23.93;;;-2.10;99.90;;;;;;5015092;28;20603;-80
2022/12/15 06:24:32;;;;;;;42.60;21.87;;;-2.20;99.90;;;;;;5015204;28;20175;-79
2022/12/15 06:26:58;;;;;;;52.53;22.70;;;-2.00;99.90;;;;;;5015098;28;20227;-80
2022/12/15 06:29:23;;;;;;;44.97;22.50;;;-1.80;99.90;;;;;;5015373;28;20180;-79
2022/12/15 06:31:49;;;;;;;45.77;21.87;;;-1.90;99.90;;;;;;5015020;28;20631;-79
2022/12/15 06:34:16;;;;;;;46.40;22.23;;;-1.70;99.90;;;;;;5014821;28;20160;-79
2022/12/15 06:36:42;;;;;;;49.43;21.93;;;-1.80;99.90;;;;;;5013775;28;20192;-78
2022/12/15 06:39:10;;;;;;;36.43;20.57;;;-2.10;99.90;;;;;;5016293;28;20518;-79
2022/12/15 06:41:36;;;;;;;51.90;23.83;;;-2.00;99.90;;;;;;5013391;28;20185;-79
2022/12/15 06:44:02;;;;;;;50.60;21.87;;;-2.10;99.90;;;;;;5014797;28;20629;-79
2022/12/15 06:46:29;;;;;;;43.40;22.17;;;-2.10;99.90;;;;;;5013232;28;20234;-82
2022/12/15 06:48:55;;;;;;;60.60;23.10;;;-1.90;99.90;;;;;;5014449;28;20169;-79
2022/12/15 06:51:21;;;;;;;49.47;22.77;;;-2.00;99.90;;;;;;5029335;28;20606;-79
2022/12/15 06:53:52;;;;;;;78.97;23.03;;;-1.90;99.90;;;;;;5013907;28;20169;-79
2022/12/15 06:56:29;;;;;;;81.43;22.63;;;-1.80;99.90;;;;;;5014263;28;20243;-79
2022/12/15 06:58:57;;;;;;;55.43;23.43;;;-1.70;99.90;;;;;;5014621;28;20680;-79
2022/12/15 07:01:23;;;;;;;49.33;22.43;;;-1.60;99.90;;;;;;5013054;28;20223;-78
2022/12/15 07:03:50;;;;;;;43.03;21.33;;;-1.60;99.90;;;;;;5013036;28;20178;-78
2022/12/15 07:06:16;;;;;;;48.67;21.73;;;-1.70;99.90;;;;;;5014167;28;20222;-79
2022/12/15 07:08:43;;;;;;;69.70;22.33;;;-1.90;99.90;;;;;;5013033;28;20187;-79
2022/12/15 07:11:11;;;;;;;47.53;23.37;;;-2.00;99.90;;;;;;5013941;28;20295;-79
2022/12/15 07:13:37;;;;;;;54.33;22.43;;;-1.80;99.90;;;;;;5014342;28;20167;-78
2022/12/15 07:16:05;;;;;;;61.13;23.00;;;-1.70;99.90;;;;;;5016845;28;20169;-79
2022/12/15 07:18:31;;;;;;;49.47;21.03;;;-1.70;99.90;;;;;;5015566;28;20177;-79
2022/12/15 07:21:04;;;;;;;38.00;20.13;;;-1.60;99.90;;;;;;5016060;28;20199;-79
2022/12/15 07:23:30;;;;;;;56.37;22.43;;;-1.50;99.90;;;;;;5016149;28;20164;-81
2022/12/15 07:25:57;;;;;;;38.43;21.23;;;-1.40;99.90;;;;;;5016938;28;20180;-79
2022/12/15 07:28:23;;;;;;;49.73;23.43;;;-1.40;99.90;;;;;;5016839;28;20222;-81
2022/12/15 07:30:48;;;;;;;41.47;21.30;;;-1.50;99.90;;;;;;5018439;28;20596;-79
2022/12/15 07:33:14;;;;;;;40.17;21.60;;;-1.60;99.90;;;;;;5016461;28;20172;-84
2022/12/15 07:35:41;;;;;;;49.60;23.10;;;-1.50;99.90;;;;;;5015527;28;20188;-79
2022/12/15 07:38:07;;;;;;;48.60;22.43;;;-1.60;99.90;;;;;;5015027;28;20392;-79
2022/12/15 07:40:33;;;;;;;58.70;24.47;;;-1.50;99.90;;;;;;5014646;28;20208;-80
2022/12/15 07:42:59;;;;;;;50.63;24.23;;;-1.40;99.90;;;;;;5015811;28;20649;-77
2022/12/15 07:45:25;;;;;;;39.63;22.57;;;-1.20;99.90;;;;;;5014376;28;20218;-78
2022/12/15 07:47:50;;;;;;;54.40;23.67;;;-1.00;99.90;;;;;;5013967;28;20180;-77
2022/12/15 07:50:17;;;;;;;54.33;23.87;;;-1.00;99.90;;;;;;5014524;28;20216;-77
2022/12/15 07:52:44;;;;;;;47.13;23.47;;;-1.10;99.90;;;;;;5012704;28;20744;-77
2022/12/15 07:55:11;;;;;;;45.73;23.37;;;-1.10;99.90;;;;;;5014220;28;20540;-78
2022/12/15 07:57:36;;;;;;;60.23;24.80;;;-1.10;99.90;;;;;;5014775;28;20526;-77
2022/12/15 08:00:04;;;;;;;45.00;23.17;;;-1.10;99.90;;;;;;5014415;28;20173;-78
2022/12/15 08:02:30;;;;;;;46.67;21.80;;;-1.30;99.90;;;;;;5016225;28;20212;-79
2022/12/15 08:04:55;;;;;;;46.90;22.53;;;-1.50;99.90;;;;;;5006900;28;20578;-82
2022/12/15 08:07:21;;;;;;;46.00;22.90;;;-1.40;99.90;;;;;;5009906;28;20778;-79
2022/12/15 08:09:48;;;;;;;59.37;24.60;;;-1.40;99.90;;;;;;5010802;28;20212;-87
2022/12/15 08:12:15;;;;;;;41.80;23.53;;;-1.50;99.90;;;;;;5007656;28;20192;-78
2022/12/15 08:14:44;;;;;;;47.00;25.97;;;-1.40;99.90;;;;;;5014641;28;20222;-80
2022/12/15 08:17:10;;;;;;;54.03;22.63;;;-1.70;99.90;;;;;;5014419;28;20180;-79
2022/12/15 08:19:35;;;;;;;47.20;22.57;;;-2.00;99.90;;;;;;5013451;28;20629;-80
2022/12/15 08:22:02;;;;;;;46.47;22.80;;;-2.00;99.90;;;;;;5015882;28;20219;-80
2022/12/15 08:24:28;;;;;;;47.40;24.17;;;-1.60;99.90;;;;;;5010878;28;20188;-78
2022/12/15 08:26:54;;;;;;;38.77;22.40;;;-1.30;99.90;;;;;;5011880;28;20664;-78
2022/12/15 08:29:19;;;;;;;43.03;22.03;;;-1.40;99.90;;;;;;5014128;28;20187;-81
2022/12/15 08:31:46;;;;;;;52.90;25.60;;;-1.60;99.90;;;;;;5018605;28;20208;-78
2022/12/15 08:34:12;;;;;;;77.23;30.07;;;-1.70;99.90;;;;;;5015264;28;20180;-79
2022/12/15 08:36:37;;;;;;;74.23;28.17;;;-1.60;99.90;;;;;;5017138;28;20196;-79
2022/12/15 08:39:03;;;;;;;75.73;29.57;;;-1.50;99.90;;;;;;5014830;28;20172;-83
2022/12/15 08:41:31;;;;;;;62.97;25.40;;;-1.40;99.90;;;;;;5022629;28;20204;-82
2022/12/15 08:43:58;;;;;;;54.83;24.30;;;-1.60;99.90;;;;;;5019901;28;20192;-80
2022/12/15 08:46:27;;;;;;;50.13;23.27;;;-1.50;99.90;;;;;;5022473;28;20200;-81
2022/12/15 08:48:53;;;;;;;48.00;22.00;;;-1.50;99.90;;;;;;5018114;28;20236;-84
2022/12/15 08:51:19;;;;;;;40.83;21.47;;;-1.50;99.90;;;;;;5015937;28;20236;-83
2022/12/15 08:53:45;;;;;;;48.40;23.57;;;-1.50;99.90;;;;;;5017480;28;20688;-83
2022/12/15 08:56:22;;;;;;;50.23;21.70;;;-1.20;99.90;;;;;;5020355;28;20637;-85
2022/12/15 08:58:49;;;;;;;48.03;21.87;;;-1.30;99.90;;;;;;5009380;28;20206;-85
2022/12/15 09:01:19;;;;;;;48.47;22.53;;;-1.30;99.90;;;;;;5012083;28;20184;-86
2022/12/15 09:03:45;;;;;;;45.03;22.20;;;-1.10;99.90;;;;;;5012269;28;20177;-80
2022/12/15 09:06:17;;;;;;;53.70;23.40;;;-0.90;99.90;;;;;;5006035;28;20188;-79
2022/12/15 09:08:43;;;;;;;51.63;22.57;;;-0.50;99.90;;;;;;4994059;28;20694;-81
2022/12/15 09:11:09;;;;;;;60.67;25.10;;;-0.50;99.90;;;;;;5003672;28;20208;-80
2022/12/15 09:13:34;;;;;;;49.20;25.03;;;-0.60;99.90;;;;;;5009353;28;20525;-84
2022/12/15 09:16:06;;;;;;;78.63;26.37;;;-0.60;99.90;;;;;;4993619;28;20656;-79
2022/12/15 09:18:32;;;;;;;60.03;24.80;;;-0.30;99.90;;;;;;5009233;28;20184;-82
2022/12/15 09:21:03;;;;;;;57.60;25.93;;;-0.40;99.90;;;;;;5013544;28;20192;-80
2022/12/15 09:23:29;;;;;;;54.73;26.07;;;-0.30;99.90;;;;;;4994954;28;20169;-79
2022/12/15 09:26:04;;;;;;;52.87;25.90;;;-0.20;99.90;;;;;;5008613;28;20580;-82
2022/12/15 09:28:33;;;;;;;52.67;24.30;;;0.00;99.90;;;;;;5013156;28;20184;-80
2022/12/15 09:31:03;;;;;;;50.45;22.80;;;-0.10;99.90;;;;;;4995610;28;20208;-82
2022/12/15 09:33:29;;;;;;;59.77;25.57;;;-0.10;99.90;;;;;;5012285;28;20183;-80
2022/12/15 09:35:55;;;;;;;46.83;24.47;;;-0.10;99.90;;;;;;5009175;28;20188;-82
2022/12/15 09:38:20;;;;;;;51.50;25.27;;;0.00;99.90;;;;;;5011111;28;20195;-82
2022/12/15 09:40:46;;;;;;;46.23;24.20;;;0.20;99.90;;;;;;5013588;28;20188;-81
2022/12/15 09:43:17;;;;;;;50.70;24.23;;;0.30;99.90;;;;;;5009011;28;20165;-82
2022/12/15 09:45:49;;;;;;;52.13;26.17;;;0.40;99.90;;;;;;5000136;28;20173;-80
2022/12/15 09:48:34;;;;;;;43.47;23.73;;;0.60;99.90;;;;;;5004995;28;20162;-82
2022/12/15 09:51:03;;;;;;;52.47;26.03;;;0.60;99.90;;;;;;5006949;28;20732;-79
2022/12/15 09:53:30;;;;;;;47.73;26.33;;;0.50;99.90;;;;;;5014225;28;20275;-78
2022/12/15 09:56:18;;;;;;;55.20;25.37;;;0.50;99.90;;;;;;4994226;28;20559;-86
2022/12/15 09:59:07;;;;;;;53.45;24.83;;;0.40;99.90;;;;;;5010378;28;20248;-79
2022/12/15 10:01:54;;;;;;;50.87;24.63;;;0.60;99.90;;;;;;5011403;28;20211;-78
2022/12/15 10:04:31;;;;;;;53.40;27.10;;;0.60;99.90;;;;;;5013760;28;20644;-78
2022/12/15 10:07:07;;;;;;;66.83;26.30;;;0.70;99.90;;;;;;5003495;28;20263;-78
2022/12/15 10:09:33;;;;;;;47.27;25.30;;;0.90;99.90;;;;;;4993994;28;20180;-78
2022/12/15 10:12:00;;;;;;;46.73;24.13;;;0.90;99.90;;;;;;4994018;28;20193;-79
2022/12/15 10:14:42;;;;;;;45.47;24.50;;;0.80;99.90;;;;;;4992941;28;20228;-79
2022/12/15 10:17:23;;;;;;;47.17;24.03;;;0.80;99.90;;;;;;4994244;28;20184;-80
2022/12/15 10:20:03;;;;;;;43.23;23.97;;;0.90;99.90;;;;;;4994529;28;20179;-79
2022/12/15 10:22:35;;;;;;;59.57;25.53;;;1.10;99.90;;;;;;4992486;28;20870;-79
2022/12/15 10:25:29;;;;;;;45.37;22.40;;;1.30;99.90;;;;;;4993283;28;20628;-79
2022/12/15 10:28:15;;;;;;;49.77;25.20;;;1.20;99.90;;;;;;4992822;28;20193;-80
2022/12/15 10:31:05;;;;;;;52.47;24.83;;;0.90;99.90;;;;;;4993956;28;20288;-80
2022/12/15 10:33:38;;;;;;;50.53;26.58;;;0.90;99.90;;;;;;4994121;28;20204;-80
2022/12/15 10:36:10;;;;;;;50.72;25.80;;;1.10;99.90;;;;;;4994977;28;20192;-78
2022/12/15 10:38:41;;;;;;;49.93;25.00;;;1.30;99.90;;;;;;4994467;28;20177;-78
2022/12/15 10:41:09;;;;;;;47.13;24.67;;;1.30;99.90;;;;;;4995118;28;20189;-79
2022/12/15 10:43:37;;;;;;;62.42;25.30;;;1.30;99.90;;;;;;4994643;28;20176;-78
2022/12/15 10:46:18;;;;;;;46.17;26.70;;;1.40;99.90;;;;;;4994566;28;20639;-78
2022/12/15 10:48:49;;;;;;;58.15;28.23;;;1.50;99.90;;;;;;4994255;28;20180;-78
2022/12/15 10:51:20;;;;;;;50.20;28.00;;;1.50;99.90;;;;;;4994440;28;20220;-78
2022/12/15 10:54:08;;;;;;;56.65;29.98;;;1.50;99.90;;;;;;4994305;28;20191;-78
2022/12/15 10:56:44;;;;;;;52.85;27.08;;;1.60;99.90;;;;;;4994680;28;20177;-78
2022/12/15 10:59:23;;;;;;;44.30;24.02;;;1.70;99.90;;;;;;4994347;28;20210;-78
2022/12/15 11:01:50;;;;;;;49.10;23.45;;;1.70;99.90;;;;;;4993980;28;20197;-78
2022/12/15 11:04:34;;;;;;;42.45;23.17;;;1.80;99.90;;;;;;4994022;28;20224;-78
2022/12/15 11:07:01;;;;;;;53.90;21.55;;;1.80;99.90;;;;;;4994225;28;20560;-78
2022/12/15 11:09:38;;;;;;;41.13;21.30;;;1.80;99.90;;;;;;4994228;28;20580;-77
2022/12/15 11:15:22;;;;;;;48.65;20.90;;;2.10;99.90;;;;;;4994143;28;20184;-78
2022/12/15 11:17:59;;;;;;;39.10;21.38;;;2.20;99.90;;;;;;4993185;28;20278;-78
2022/12/15 11:20:32;;;;;;;37.08;22.05;;;2.20;99.90;;;;;;4995936;28;20176;-81
2022/12/15 11:23:04;;;;;;;42.08;22.52;;;2.10;99.90;;;;;;4993164;28;20201;-79
2022/12/15 11:25:35;;;;;;;60.78;23.20;;;2.10;99.90;;;;;;4993817;28;20227;-78
2022/12/15 11:28:08;;;;;;;49.15;21.92;;;2.10;99.90;;;;;;4993906;28;20166;-79
2022/12/15 11:30:40;;;;;;;42.58;21.17;;;2.00;99.90;;;;;;4994151;28;20224;-79
2022/12/15 11:33:08;;;;;;;42.40;20.90;;;2.00;99.90;;;;;;4995260;28;20184;-78
2022/12/15 11:35:43;;;;;;;36.17;18.63;;;1.90;99.90;;;;;;4994532;28;20188;-78
2022/12/15 11:38:11;;;;;;;37.83;20.75;;;2.00;99.90;;;;;;4994657;28;20180;-79
2022/12/15 11:40:38;;;;;;;43.58;20.38;;;2.20;99.90;;;;;;4993099;28;20297;-79
2022/12/15 11:43:34;;;;;;;45.03;22.40;;;2.20;99.90;;;;;;4992811;28;20231;-78
2022/12/15 11:46:20;;;;;;;43.25;20.88;;;2.20;99.90;;;;;;4994125;28;20235;-78
2022/12/15 11:48:51;;;;;;;45.25;21.05;;;2.20;99.90;;;;;;4993262;28;20252;-79
2022/12/15 11:51:33;;;;;;;39.45;22.23;;;2.20;99.90;;;;;;4994474;28;20208;-80
2022/12/15 11:54:05;;;;;;;43.75;23.20;;;2.20;99.90;;;;;;4992249;28;20576;-79
2022/12/15 11:56:38;;;;;;;42.75;24.58;;;2.10;99.90;;;;;;4993396;28;20185;-80
2022/12/15 11:59:22;;;;;;;47.47;23.15;;;2.10;99.90;;;;;;4993384;28;20247;-79
2022/12/15 12:02:12;;;;;;;50.63;22.08;;;2.20;99.90;;;;;;4993175;28;20736;-80
2022/12/15 12:05:03;;;;;;;39.63;21.42;;;2.30;99.90;;;;;;4993514;28;20165;-80
2022/12/15 12:07:54;;;;;;;40.53;21.48;;;2.20;99.90;;;;;;4993487;28;20197;-79
2022/12/15 12:10:50;;;;;;;38.72;20.67;;;2.20;99.90;;;;;;4993213;28;20608;-79
2022/12/15 12:13:18;;;;;;;42.72;23.35;;;2.20;99.90;;;;;;4992018;28;20207;-79
2022/12/15 12:16:12;;;;;;;40.08;22.65;;;2.10;99.90;;;;;;4993137;28;20184;-79
2022/12/15 12:18:51;;;;;;;50.58;23.55;;;2.20;99.90;;;;;;4993745;28;20169;-79
2022/12/15 12:21:23;;;;;;;46.15;23.42;;;2.50;99.90;;;;;;4993103;28;20195;-79
2022/12/15 12:23:52;;;;;;;43.97;22.67;;;2.60;99.90;;;;;;4993576;28;20681;-80
2022/12/15 12:26:21;;;;;;;50.20;22.02;;;2.60;99.90;;;;;;4993078;28;20232;-80
2022/12/15 12:29:19;;;;;;;49.75;22.35;;;2.70;99.90;;;;;;4993196;28;20200;-80
2022/12/15 12:32:09;;;;;;;43.53;19.15;;;2.60;99.90;;;;;;4997089;28;20225;-79
2022/12/15 12:34:59;;;;;;;47.45;20.80;;;2.50;99.90;;;;;;4995931;28;20177;-79
2022/12/15 12:37:41;;;;;;;37.53;19.90;;;2.50;99.90;;;;;;4992722;28;20189;-80
2022/12/15 12:40:19;;;;;;;45.60;19.95;;;2.60;99.90;;;;;;4994297;28;20252;-80
2022/12/15 12:42:55;;;;;;;45.88;23.42;;;2.80;99.90;;;;;;5000265;28;20715;-79
2022/12/15 12:45:28;;;;;;;47.22;20.95;;;2.80;99.90;;;;;;4994196;28;20622;-80
2022/12/15 12:47:56;;;;;;;40.85;20.67;;;2.90;99.90;;;;;;4992938;28;20243;-81
2022/12/15 12:50:25;;;;;;;43.33;19.35;;;3.00;99.90;;;;;;4992776;28;20231;-82
2022/12/15 12:52:57;;;;;;;35.38;19.35;;;3.00;99.90;;;;;;4993200;28;20185;-80
2022/12/15 12:55:41;;;;;;;43.72;19.48;;;3.00;99.90;;;;;;4999377;28;20566;-80
2022/12/15 12:58:46;;;;;;;37.38;17.35;;;3.00;99.90;;;;;;4997827;28;20499;-80
2022/12/15 13:01:19;;;;;;;31.02;15.70;;;3.00;99.90;;;;;;5005378;28;20292;-80
2022/12/15 13:03:45;;;;;;;41.35;17.25;;;3.00;99.90;;;;;;5001097;28;20665;-79
2022/12/15 13:06:41;;;;;;;26.50;15.05;;;3.20;99.90;;;;;;4997969;28;20629;-80
2022/12/15 13:09:15;;;;;;;40.75;16.55;;;3.00;99.90;;;;;;4998974;28;20193;-80
2022/12/15 13:11:47;;;;;;;26.80;15.35;;;2.90;99.90;;;;;;4998942;28;20358;-82
2022/12/15 13:14:19;;;;;;;30.02;16.10;;;2.90;99.90;;;;;;4998838;28;20170;-79
2022/12/15 13:16:46;;;;;;;28.10;15.10;;;3.10;99.90;;;;;;4998013;28;20260;-80
2022/12/15 13:19:13;;;;;;;28.10;16.23;;;3.20;99.90;;;;;;4997961;28;20669;-80
2022/12/15 13:21:42;;;;;;;30.95;18.23;;;2.90;99.90;;;;;;4999453;28;20208;-80
2022/12/15 13:24:30;;;;;;;38.80;16.85;;;3.10;99.90;;;;;;4999240;28;20188;-79
2022/12/15 13:27:07;;;;;;;40.47;17.15;;;3.20;99.90;;;;;;4999280;28;20165;-79
2022/12/15 13:29:33;;;;;;;30.42;15.57;;;3.30;99.90;;;;;;4997647;28;20223;-79
2022/12/15 13:31:59;;;;;;;39.83;15.50;;;3.30;99.90;;;;;;4999027;28;20591;-80
2022/12/15 13:34:27;;;;;;;38.03;16.98;;;3.40;99.90;;;;;;4999014;28;20692;-81
2022/12/15 13:36:55;;;;;;;29.98;13.77;;;3.40;99.90;;;;;;4998517;28;20180;-79
2022/12/15 13:39:21;;;;;;;23.65;13.15;;;3.50;99.90;;;;;;4999372;28;20260;-79
2022/12/15 13:41:47;;;;;;;26.17;14.65;;;3.30;99.90;;;;;;4999154;28;20585;-79
2022/12/15 13:44:26;;;;;;;35.45;14.95;;;3.30;99.90;;;;;;4997934;28;20197;-79
2022/12/15 13:46:53;;;;;;;18.92;11.38;;;3.30;99.90;;;;;;4998607;28;20173;-79
2022/12/15 13:49:33;;;;;;;48.67;13.27;;;3.10;99.90;;;;;;4999620;28;20169;-80
2022/12/15 13:52:10;;;;;;;24.45;10.90;;;3.20;99.90;;;;;;4999088;28;20204;-79
2022/12/15 13:54:44;;;;;;;22.00;10.18;;;3.20;99.90;;;;;;5007025;28;20179;-79
2022/12/15 13:57:13;;;;;;;20.02;12.07;;;3.10;99.90;;;;;;5012091;28;20585;-79
2022/12/15 13:59:39;;;;;;;18.98;11.55;;;3.20;99.90;;;;;;4998948;28;20259;-80
2022/12/15 14:02:27;;;;;;;33.92;13.45;;;3.10;99.90;;;;;;4999140;28;20288;-83
2022/12/15 14:05:13;;;;;;;24.40;11.95;;;3.00;99.90;;;;;;4999022;28;20252;-81
2022/12/15 14:07:42;;;;;;;25.02;13.35;;;3.20;99.90;;;;;;4995317;28;20165;-79
2022/12/15 14:10:20;;;;;;;21.17;13.18;;;3.00;99.90;;;;;;4995461;28;20275;-80
2022/12/15 14:12:48;;;;;;;27.40;14.15;;;3.20;99.90;;;;;;5004216;28;20216;-78
2022/12/15 14:15:16;;;;;;;30.45;14.23;;;3.60;99.90;;;;;;5001692;28;20213;-79
2022/12/15 14:17:50;;;;;;;23.83;13.48;;;3.60;99.90;;;;;;5002476;28;20166;-78
2022/12/15 14:20:27;;;;;;;25.23;14.15;;;3.80;99.90;;;;;;5001122;28;20165;-79
2022/12/15 14:22:53;;;;;;;30.60;14.85;;;3.80;99.90;;;;;;4999116;28;20197;-78
2022/12/15 14:25:25;;;;;;;22.60;13.65;;;3.80;99.90;;;;;;5002138;28;20165;-79
2022/12/15 14:27:52;;;;;;;22.92;13.77;;;3.90;99.90;;;;;;5002150;28;20257;-80
2022/12/15 14:30:34;;;;;;;25.55;13.25;;;4.00;99.90;;;;;;4999595;28;20220;-83
2022/12/15 14:33:13;;;;;;;29.50;14.98;;;3.90;99.90;;;;;;4998597;28;20197;-79
2022/12/15 14:35:52;;;;;;;30.17;13.95;;;3.90;99.90;;;;;;4996309;28;20191;-79
2022/12/15 14:38:20;;;;;;;27.10;14.43;;;3.80;99.90;;;;;;4995613;28;20165;-79
2022/12/15 14:40:48;;;;;;;36.28;14.90;;;3.70;99.90;;;;;;4997769;28;20169;-82
2022/12/15 14:43:27;;;;;;;30.60;15.85;;;3.70;99.90;;;;;;4996521;28;20220;-80
2022/12/15 14:46:09;;;;;;;26.73;15.50;;;3.80;99.90;;;;;;4997815;28;20188;-79
2022/12/15 14:48:40;;;;;;;29.65;15.40;;;3.90;99.90;;;;;;5012916;28;20183;-80
2022/12/15 14:51:10;;;;;;;26.38;12.50;;;4.00;99.90;;;;;;5021809;28;20222;-82
2022/12/15 14:53:38;;;;;;;22.85;13.75;;;3.70;99.90;;;;;;5029592;28;20176;-82
2022/12/15 14:56:29;;;;;;;29.80;13.05;;;3.60;99.90;;;;;;5027745;28;20653;-80
2022/12/15 14:59:05;;;;;;;26.73;12.90;;;3.70;99.90;;;;;;5016806;28;20181;-79
2022/12/15 15:01:38;;;;;;;21.52;13.02;;;3.80;99.90;;;;;;5003793;28;20268;-81
2022/12/15 15:04:40;;;;;;;22.38;13.18;;;3.60;99.90;;;;;;5008112;28;20544;-80
2022/12/15 15:07:15;;;;;;;18.98;13.10;;;3.60;99.90;;;;;;5012615;28;20576;-80
2022/12/15 15:09:42;;;;;;;33.08;16.00;;;3.50;99.90;;;;;;5001336;28;20164;-81
2022/12/15 15:12:17;;;;;;;24.23;14.10;;;3.50;99.90;;;;;;4997585;28;20200;-80
2022/12/15 15:15:03;;;;;;;20.27;13.68;;;3.30;99.90;;;;;;5004966;28;20157;-81
2022/12/15 15:17:48;;;;;;;24.08;14.90;;;3.30;99.90;;;;;;5010593;28;20169;-81
2022/12/15 15:20:17;;;;;;;30.10;15.63;;;3.20;99.90;;;;;;5008045;28;20169;-81
2022/12/15 15:22:46;;;;;;;28.52;15.27;;;3.20;99.90;;;;;;5006439;28;20279;-81
2022/12/15 15:25:39;;;;;;;34.42;14.52;;;3.20;99.90;;;;;;5005621;28;20180;-80